createdAt,value
2022-11-21T00:01:17.501Z,14.43
2022-11-21T00:03:46.611Z,14.13
2022-11-21T00:06:16.122Z,14.27
2022-11-21T00:08:46.772Z,14.41
2022-11-21T00:11:16.094Z,14.45
2022-11-21T00:13:45.418Z,14.42
2022-11-21T00:16:16.668Z,14.71
2022-11-21T00:18:45.711Z,14.92
2022-11-21T00:21:16.552Z,14.91
2022-11-21T00:23:48.233Z,14.10
2022-11-21T00:26:17.947Z,13.77
2022-11-21T00:28:47.007Z,13.07
2022-11-21T00:31:25.251Z,12.82
2022-11-21T00:33:54.292Z,12.92
2022-11-21T00:36:23.164Z,13.06
2022-11-21T00:38:53.395Z,14.08
2022-11-21T00:41:22.285Z,13.88
2022-11-21T00:43:51.243Z,13.94
2022-11-21T00:46:20.084Z,14.04
2022-11-21T00:48:48.968Z,14.18
2022-11-21T00:51:18.037Z,14.47
2022-11-21T00:53:46.923Z,14.32
2022-11-21T00:56:17.195Z,14.34
2022-11-21T00:58:46.479Z,14.47
2022-11-21T01:01:17.052Z,14.60
2022-11-21T01:03:46.988Z,14.24
2022-11-21T01:06:17.130Z,14.44
2022-11-21T01:08:46.246Z,14.57
2022-11-21T01:11:19.976Z,14.16
2022-11-21T01:13:49.902Z,14.41
2022-11-21T01:16:21.166Z,14.07
2022-11-21T01:18:50.080Z,14.52
2022-11-21T01:21:23.633Z,14.60
2022-11-21T01:23:52.832Z,14.63
2022-11-21T01:26:25.723Z,14.60
2022-11-21T01:28:55.012Z,14.60
2022-11-21T01:31:26.165Z,14.46
2022-11-21T01:33:55.833Z,14.13
2022-11-21T01:36:27.703Z,14.18
2022-11-21T01:38:58.966Z,14.02
2022-11-21T01:41:33.620Z,13.99
2022-11-21T01:44:03.303Z,14.01
2022-11-21T01:46:32.158Z,14.02
2022-11-21T01:49:05.767Z,14.13
2022-11-21T01:51:38.667Z,14.11
2022-11-21T01:54:11.625Z,14.06
2022-11-21T01:56:47.951Z,13.90
2022-11-21T01:59:22.828Z,13.93
2022-11-21T02:01:55.092Z,14.01
2022-11-21T02:04:27.797Z,14.38
2022-11-21T02:06:56.847Z,14.52
2022-11-21T02:09:27.523Z,14.37
2022-11-21T02:12:02.001Z,14.10
2022-11-21T02:14:31.363Z,14.10
2022-11-21T02:17:04.835Z,14.33
2022-11-21T02:19:43.868Z,14.28
2022-11-21T02:22:21.438Z,14.01
2022-11-21T02:25:08.510Z,13.96
2022-11-21T02:27:37.544Z,13.93
2022-11-21T02:30:10.023Z,14.00
2022-11-21T02:32:41.450Z,13.86
2022-11-21T02:35:10.589Z,13.53
2022-11-21T02:37:39.572Z,13.85
2022-11-21T02:40:13.957Z,13.85
2022-11-21T02:42:52.563Z,13.59
2022-11-21T02:45:26.408Z,13.42
2022-11-21T02:48:00.853Z,13.57
2022-11-21T02:50:34.386Z,13.66
2022-11-21T02:53:06.003Z,13.58
2022-11-21T02:55:36.785Z,13.63
2022-11-21T02:58:06.584Z,13.58
2022-11-21T03:00:36.893Z,13.42
2022-11-21T03:03:05.831Z,13.56
2022-11-21T03:05:34.758Z,13.52
2022-11-21T03:08:04.190Z,13.41
2022-11-21T03:10:33.658Z,13.37
2022-11-21T03:13:03.942Z,13.28
2022-11-21T03:15:34.587Z,13.26
2022-11-21T03:18:04.473Z,13.30
2022-11-21T03:20:34.724Z,13.38
2022-11-21T03:23:04.240Z,13.63
2022-11-21T03:25:33.114Z,13.72
2022-11-21T03:28:03.351Z,13.70
2022-11-21T03:30:32.820Z,13.80
2022-11-21T03:33:02.025Z,13.93
2022-11-21T03:35:30.860Z,13.60
2022-11-21T03:37:59.736Z,13.41
2022-11-21T03:40:28.583Z,13.60
2022-11-21T03:42:57.500Z,13.62
2022-11-21T03:45:27.758Z,13.68
2022-11-21T03:47:56.614Z,13.66
2022-11-21T03:50:25.508Z,13.36
2022-11-21T03:52:54.383Z,13.39
2022-11-21T03:55:23.312Z,12.89
2022-11-21T03:57:52.203Z,12.38
2022-11-21T04:00:21.253Z,12.17
2022-11-21T04:02:51.528Z,12.41
2022-11-21T04:05:20.598Z,12.63
2022-11-21T04:07:49.516Z,12.77
2022-11-21T04:10:19.294Z,12.56
2022-11-21T04:12:48.325Z,12.79
2022-11-21T04:15:17.290Z,12.90
2022-11-21T04:17:46.202Z,12.85
2022-11-21T04:20:17.493Z,12.64
2022-11-21T04:22:46.402Z,12.61
2022-11-21T04:25:15.371Z,12.34
2022-11-21T04:27:44.254Z,12.16
2022-11-21T04:30:14.101Z,12.41
2022-11-21T04:32:44.180Z,12.89
2022-11-21T04:35:13.028Z,13.01
2022-11-21T04:37:43.709Z,13.11
2022-11-21T04:40:14.544Z,13.17
2022-11-21T04:42:43.647Z,13.13
2022-11-21T04:45:13.747Z,12.94
2022-11-21T04:47:44.112Z,12.87
2022-11-21T04:50:15.133Z,13.08
2022-11-21T04:52:51.046Z,13.12
2022-11-21T04:55:20.366Z,12.84
2022-11-21T04:57:49.442Z,12.85
2022-11-21T05:00:23.938Z,12.93
2022-11-21T05:02:53.486Z,12.98
2022-11-21T05:05:26.085Z,13.18
2022-11-21T05:07:56.365Z,13.22
2022-11-21T05:10:25.300Z,13.06
2022-11-21T05:13:18.554Z,12.86
2022-11-21T05:15:51.508Z,13.29
2022-11-21T05:18:20.878Z,13.12
2022-11-21T05:20:49.719Z,12.94
2022-11-21T05:23:20.006Z,13.04
2022-11-21T05:25:48.974Z,12.98
2022-11-21T05:28:17.957Z,12.45
2022-11-21T05:30:46.857Z,12.52
2022-11-21T05:33:15.775Z,12.66
2022-11-21T05:35:44.972Z,12.67
2022-11-21T05:38:13.886Z,12.87
2022-11-21T05:40:44.203Z,12.69
2022-11-21T05:43:30.823Z,12.66
2022-11-21T05:45:59.772Z,12.86
2022-11-21T05:48:28.698Z,13.00
2022-11-21T05:50:57.596Z,13.09
2022-11-21T05:53:26.527Z,12.96
2022-11-21T05:55:56.903Z,13.13
2022-11-21T05:58:25.746Z,13.46
2022-11-21T06:00:59.985Z,13.48
2022-11-21T06:03:32.530Z,13.13
2022-11-21T06:06:03.242Z,13.27
2022-11-21T06:08:34.499Z,14.00
2022-11-21T06:11:06.981Z,14.07
2022-11-21T06:13:36.683Z,14.05
2022-11-21T06:16:07.090Z,13.45
2022-11-21T06:18:37.984Z,13.19
2022-11-21T06:21:08.688Z,13.28
2022-11-21T06:23:38.017Z,13.53
2022-11-21T06:26:10.357Z,13.78
2022-11-21T06:28:40.782Z,14.15
2022-11-21T06:31:11.203Z,14.13
2022-11-21T06:33:41.097Z,14.42
2022-11-21T06:36:12.228Z,14.65
2022-11-21T06:38:41.455Z,14.83
2022-11-21T06:41:14.487Z,15.04
2022-11-21T06:43:43.555Z,15.05
2022-11-21T06:46:13.252Z,14.65
2022-11-21T06:48:42.548Z,14.45
2022-11-21T06:51:17.594Z,14.40
2022-11-21T06:53:46.921Z,14.36
2022-11-21T06:56:17.492Z,14.04
2022-11-21T06:58:46.373Z,14.37
2022-11-21T07:01:15.621Z,14.69
2022-11-21T07:03:44.527Z,16.07
2022-11-21T07:06:13.706Z,16.09
2022-11-21T07:08:42.546Z,16.67
2022-11-21T07:11:29.045Z,17.44
2022-11-21T07:13:59.296Z,16.59
2022-11-21T07:16:31.862Z,16.08
2022-11-21T07:19:01.152Z,16.52
2022-11-21T07:21:30.025Z,16.67
2022-11-21T07:23:58.940Z,16.48
2022-11-21T07:26:27.845Z,16.93
2022-11-21T07:28:56.772Z,17.39
2022-11-21T07:31:26.974Z,17.58
2022-11-21T07:33:55.855Z,17.34
2022-11-21T07:36:24.852Z,17.31
2022-11-21T07:38:53.724Z,17.23
2022-11-21T07:41:22.577Z,17.29
2022-11-21T07:43:51.423Z,17.48
2022-11-21T07:46:20.269Z,16.79
2022-11-21T07:48:50.565Z,16.63
2022-11-21T07:51:19.433Z,16.37
2022-11-21T07:53:48.567Z,16.13
2022-11-21T07:56:17.970Z,15.98
2022-11-21T07:58:46.800Z,15.57
2022-11-21T08:01:16.139Z,15.69
2022-11-21T08:03:45.005Z,15.60
2022-11-21T08:06:15.306Z,14.73
2022-11-21T08:08:44.808Z,14.33
2022-11-21T08:11:13.710Z,14.20
2022-11-21T08:13:42.537Z,14.31
2022-11-21T08:16:11.424Z,14.07
2022-11-21T08:18:40.347Z,13.84
2022-11-21T08:21:09.212Z,13.68
2022-11-21T08:23:39.454Z,13.48
2022-11-21T08:26:11.311Z,13.20
2022-11-21T08:28:40.287Z,13.59
2022-11-21T08:31:09.246Z,13.05
2022-11-21T08:33:38.151Z,13.05
2022-11-21T08:36:07.890Z,12.89
2022-11-21T08:38:36.801Z,13.17
2022-11-21T08:41:24.869Z,13.30
2022-11-21T08:43:53.766Z,13.18
2022-11-21T08:46:27.286Z,13.13
2022-11-21T08:48:56.258Z,12.97
2022-11-21T08:51:25.220Z,13.09
2022-11-21T08:53:54.069Z,13.01
2022-11-21T08:56:24.680Z,12.91
2022-11-21T08:58:53.554Z,12.65
2022-11-21T09:01:22.496Z,11.76
2022-11-21T09:03:51.835Z,11.39
2022-11-21T09:06:20.744Z,11.88
2022-11-21T09:08:49.633Z,11.77
2022-11-21T09:11:18.505Z,11.87
2022-11-21T09:14:09.236Z,11.98
2022-11-21T09:17:00.676Z,11.61
2022-11-21T09:19:31.205Z,11.66
2022-11-21T09:22:00.595Z,11.47
2022-11-21T09:24:29.776Z,11.60
2022-11-21T09:26:58.608Z,11.53
2022-11-21T09:29:29.007Z,10.48
2022-11-21T09:31:58.118Z,10.79
2022-11-21T09:34:27.449Z,11.30
2022-11-21T09:36:56.753Z,11.79
2022-11-21T09:39:25.902Z,12.00
2022-11-21T09:42:08.583Z,11.69
2022-11-21T09:44:53.307Z,11.77
2022-11-21T09:47:26.234Z,12.10
2022-11-21T09:50:01.993Z,11.64
2022-11-21T09:52:38.491Z,12.10
2022-11-21T09:55:18.388Z,12.63
2022-11-21T09:57:50.201Z,12.42
2022-11-21T10:00:24.719Z,11.93
2022-11-21T10:02:53.906Z,11.47
2022-11-21T10:05:31.837Z,11.68
2022-11-21T10:08:07.247Z,11.69
2022-11-21T10:10:52.206Z,11.50
2022-11-21T10:13:33.225Z,11.53
2022-11-21T10:16:11.212Z,11.82
2022-11-21T10:19:05.693Z,11.98
2022-11-21T10:22:11.060Z,11.77
2022-11-21T10:24:51.488Z,11.88
2022-11-21T10:27:28.249Z,11.90
2022-11-21T10:30:03.529Z,11.32
2022-11-21T10:32:39.806Z,11.14
2022-11-21T10:35:16.681Z,11.22
2022-11-21T10:37:49.869Z,11.28
2022-11-21T10:40:36.925Z,11.74
2022-11-21T10:43:28.825Z,11.02
2022-11-21T10:45:57.815Z,11.61
2022-11-21T10:48:28.114Z,11.87
2022-11-21T10:51:19.272Z,11.32
2022-11-21T10:54:07.971Z,12.13
2022-11-21T10:56:38.251Z,11.72
2022-11-21T10:59:20.392Z,12.24
2022-11-21T11:01:57.241Z,12.07
2022-11-21T11:04:30.276Z,11.91
2022-11-21T11:07:22.517Z,11.63
2022-11-21T11:09:53.592Z,11.73
2022-11-21T11:12:46.881Z,12.06
2022-11-21T11:15:24.950Z,11.51
2022-11-21T11:17:57.547Z,11.41
2022-11-21T11:20:38.423Z,12.14
2022-11-21T11:23:26.980Z,11.05
2022-11-21T11:25:57.809Z,11.34
2022-11-21T11:28:28.500Z,11.38
2022-11-21T11:30:59.062Z,11.30
2022-11-21T11:33:33.234Z,11.30
2022-11-21T11:36:13.725Z,10.87
2022-11-21T11:38:48.253Z,10.24
2022-11-21T11:41:59.036Z,10.00
2022-11-21T11:44:55.048Z,10.57
2022-11-21T11:47:34.104Z,10.65
2022-11-21T11:50:15.034Z,10.71
2022-11-21T11:52:56.933Z,10.68
2022-11-21T11:55:30.717Z,10.36
2022-11-21T11:58:03.720Z,10.33
2022-11-21T12:00:41.643Z,10.23
2022-11-21T12:03:16.596Z,10.23
2022-11-21T12:05:57.620Z,9.94
2022-11-21T12:08:41.718Z,10.42
2022-11-21T12:11:37.825Z,10.49
2022-11-21T12:14:39.424Z,10.30
2022-11-21T12:17:11.025Z,10.21
2022-11-21T12:19:41.014Z,10.30
2022-11-21T12:22:12.084Z,10.63
2022-11-21T12:24:43.351Z,10.33
2022-11-21T12:27:25.432Z,10.25
2022-11-21T12:30:07.476Z,10.81
2022-11-21T12:32:55.745Z,10.78
2022-11-21T12:35:43.262Z,10.69
2022-11-21T12:38:26.621Z,10.73
2022-11-21T12:41:27.966Z,10.42
2022-11-21T12:44:08.452Z,10.37
2022-11-21T12:46:47.099Z,10.55
2022-11-21T12:49:42.793Z,10.51
2022-11-21T12:52:47.238Z,10.16
2022-11-21T12:55:25.197Z,10.50
2022-11-21T12:58:10.751Z,10.82
2022-11-21T13:00:53.477Z,10.57
2022-11-21T13:03:55.967Z,10.94
2022-11-21T13:06:27.841Z,10.90
2022-11-21T13:08:59.887Z,11.35
2022-11-21T13:12:01.081Z,12.13
2022-11-21T13:14:39.340Z,11.81
2022-11-21T13:17:22.056Z,10.72
2022-11-21T13:19:55.334Z,10.90
2022-11-21T13:22:49.784Z,10.24
2022-11-21T13:25:41.025Z,9.94
2022-11-21T13:28:35.791Z,10.41
2022-11-21T13:31:30.674Z,10.45
2022-11-21T13:34:00.389Z,10.57
2022-11-21T13:36:38.953Z,10.72
2022-11-21T13:39:36.352Z,10.71
2022-11-21T13:42:30.127Z,10.90
2022-11-21T13:44:59.619Z,11.39
2022-11-21T13:48:06.454Z,11.79
2022-11-21T13:50:52.279Z,11.26
2022-11-21T13:54:02.316Z,11.85
2022-11-21T13:56:38.271Z,12.18
2022-11-21T13:59:39.624Z,12.30
2022-11-21T14:02:32.222Z,12.46
2022-11-21T14:05:46.105Z,11.71
2022-11-21T14:08:20.413Z,11.28
2022-11-21T14:10:51.566Z,10.63
2022-11-21T14:13:26.109Z,10.05
2022-11-21T14:16:14.782Z,9.52
2022-11-21T14:18:47.251Z,9.66
2022-11-21T14:21:26.645Z,9.56
2022-11-21T14:23:58.031Z,9.78
2022-11-21T14:26:27.445Z,9.66
2022-11-21T14:29:22.964Z,9.72
2022-11-21T14:31:52.000Z,9.59
2022-11-21T14:34:28.607Z,9.75
2022-11-21T14:37:01.083Z,9.31
2022-11-21T14:39:43.681Z,9.12
2022-11-21T14:42:15.970Z,9.25
2022-11-21T14:44:46.216Z,8.97
2022-11-21T14:47:23.557Z,9.05
2022-11-21T14:49:58.691Z,9.04
2022-11-21T14:52:32.276Z,9.18
2022-11-21T14:57:53.207Z,9.67
2022-11-21T15:03:21.272Z,9.54
2022-11-21T15:06:08.147Z,9.24
2022-11-21T15:09:18.418Z,9.49
2022-11-21T15:11:36.130Z,9.79
2022-11-21T15:14:15.907Z,10.01
2022-11-21T15:16:49.094Z,10.15
2022-11-21T15:19:23.568Z,9.41
2022-11-21T15:21:54.227Z,9.09
2022-11-21T15:24:32.353Z,9.08
2022-11-21T15:27:01.345Z,8.93
2022-11-21T15:29:32.246Z,8.80
2022-11-21T15:32:15.810Z,8.36
2022-11-21T15:34:45.346Z,8.61
2022-11-21T15:37:17.341Z,8.29
2022-11-21T15:39:48.405Z,8.42
2022-11-21T15:42:37.020Z,8.96
2022-11-21T15:45:23.954Z,8.83
2022-11-21T15:47:55.626Z,8.92
2022-11-21T15:50:26.383Z,8.82
2022-11-21T15:52:55.395Z,8.19
2022-11-21T15:55:26.973Z,8.07
2022-11-21T15:57:55.921Z,7.89
2022-11-21T16:00:24.842Z,8.06
2022-11-21T16:02:55.123Z,7.71
2022-11-21T16:05:24.302Z,7.72
2022-11-21T16:07:53.258Z,7.78
2022-11-21T16:10:27.592Z,7.93
2022-11-21T16:12:57.294Z,8.42
2022-11-21T16:15:26.254Z,8.03
2022-11-21T16:17:56.567Z,8.19
2022-11-21T16:20:25.424Z,7.92
2022-11-21T16:22:54.314Z,7.56
2022-11-21T16:25:23.216Z,7.98
2022-11-21T16:27:52.113Z,7.96
2022-11-21T16:30:21.074Z,7.93
2022-11-21T16:32:51.303Z,8.41
2022-11-21T16:35:21.592Z,8.41
2022-11-21T16:37:52.202Z,8.27
2022-11-21T16:40:21.061Z,7.81
2022-11-21T16:42:49.914Z,7.92
2022-11-21T16:45:18.955Z,8.39
2022-11-21T16:47:49.124Z,8.52
2022-11-21T16:50:18.819Z,8.72
2022-11-21T16:52:49.724Z,8.73
2022-11-21T16:55:18.637Z,8.80
2022-11-21T16:57:47.763Z,8.75
2022-11-21T17:00:18.120Z,8.82
2022-11-21T17:02:47.129Z,8.66
2022-11-21T17:05:16.128Z,8.97
2022-11-21T17:07:45.033Z,8.87
2022-11-21T17:10:15.921Z,8.82
2022-11-21T17:12:45.246Z,8.75
2022-11-21T17:15:16.396Z,9.01
2022-11-21T17:17:45.264Z,9.75
2022-11-21T17:20:14.184Z,9.30
2022-11-21T17:22:43.115Z,8.86
2022-11-21T17:25:12.020Z,8.97
2022-11-21T17:27:42.342Z,9.16
2022-11-21T17:30:12.252Z,9.05
2022-11-21T17:32:41.235Z,9.00
2022-11-21T17:35:11.363Z,8.87
2022-11-21T17:37:40.727Z,8.96
2022-11-21T17:40:12.704Z,8.33
2022-11-21T17:42:43.587Z,8.09
2022-11-21T17:45:12.628Z,7.83
2022-11-21T17:47:42.290Z,7.31
2022-11-21T17:50:11.458Z,7.23
2022-11-21T17:52:40.390Z,7.72
2022-11-21T17:55:09.283Z,7.46
2022-11-21T17:57:38.151Z,7.59
2022-11-21T18:00:09.968Z,7.71
2022-11-21T18:02:38.943Z,7.94
2022-11-21T18:05:07.943Z,8.10
2022-11-21T18:07:37.824Z,8.17
2022-11-21T18:10:35.628Z,8.47
2022-11-21T18:12:59.269Z,8.70
2022-11-21T18:15:29.496Z,8.75
2022-11-21T18:17:58.418Z,8.42
2022-11-21T18:20:27.290Z,8.20
2022-11-21T18:22:56.319Z,7.88
2022-11-21T18:25:25.254Z,7.89
2022-11-21T18:27:54.860Z,7.90
2022-11-21T18:30:24.291Z,7.56
2022-11-21T18:32:54.860Z,7.43
2022-11-21T18:35:23.974Z,7.46
2022-11-21T18:37:52.918Z,7.48
2022-11-21T18:40:21.888Z,7.15
2022-11-21T18:42:50.783Z,7.08
2022-11-21T18:45:19.661Z,6.79
2022-11-21T18:47:48.540Z,7.10
2022-11-21T18:50:19.200Z,6.88
2022-11-21T18:52:48.129Z,6.91
2022-11-21T18:55:17.030Z,7.00
2022-11-21T18:57:47.000Z,7.30
2022-11-21T19:00:16.580Z,7.51
2022-11-21T19:02:45.580Z,7.80
2022-11-21T19:05:20.235Z,7.46
2022-11-21T19:07:53.163Z,7.82
2022-11-21T19:10:41.935Z,7.84
2022-11-21T19:13:10.890Z,7.98
2022-11-21T19:15:39.953Z,8.20
2022-11-21T19:18:08.777Z,8.19
2022-11-21T19:20:37.928Z,7.81
2022-11-21T19:23:09.093Z,7.53
2022-11-21T19:25:37.995Z,7.46
2022-11-21T19:28:06.942Z,7.35
2022-11-21T19:30:36.279Z,7.42
2022-11-21T19:33:05.281Z,7.35
2022-11-21T19:35:34.293Z,7.55
2022-11-21T19:38:03.818Z,6.83
2022-11-21T19:40:54.811Z,6.57
2022-11-21T19:43:23.874Z,6.33
2022-11-21T19:45:57.840Z,6.59
2022-11-21T19:48:27.108Z,6.19
2022-11-21T19:50:58.630Z,6.12
2022-11-21T19:53:28.714Z,6.31
2022-11-21T19:55:59.001Z,6.02
2022-11-21T19:58:27.847Z,5.86
2022-11-21T20:01:06.419Z,6.06
2022-11-21T20:03:35.525Z,6.27
2022-11-21T20:06:06.211Z,5.72
2022-11-21T20:08:35.508Z,5.89
2022-11-21T20:11:13.107Z,5.64
2022-11-21T20:13:43.091Z,5.36
2022-11-21T20:16:19.430Z,5.46
2022-11-21T20:18:48.387Z,5.40
2022-11-21T20:21:18.427Z,4.90
2022-11-21T20:23:47.797Z,4.70
2022-11-21T20:26:19.719Z,4.84
2022-11-21T20:28:49.696Z,4.74
2022-11-21T20:31:20.287Z,4.66
2022-11-21T20:33:51.203Z,5.08
2022-11-21T20:36:23.772Z,5.00
2022-11-21T20:38:54.703Z,5.13
2022-11-21T20:41:26.839Z,5.23
2022-11-21T20:44:44.653Z,5.55
2022-11-21T20:46:45.148Z,5.78
2022-11-21T20:49:14.092Z,5.83
2022-11-21T20:53:31.332Z,5.72
2022-11-21T20:54:33.441Z,5.97
2022-11-21T20:57:03.782Z,6.14
2022-11-21T20:59:32.994Z,5.90
2022-11-21T21:02:02.181Z,5.79
2022-11-21T21:04:31.106Z,5.51
2022-11-21T21:07:00.029Z,5.55
2022-11-21T21:09:30.027Z,5.74
2022-11-21T21:11:59.168Z,5.54
2022-11-21T21:14:29.492Z,5.55
2022-11-21T21:16:58.415Z,5.82
2022-11-21T21:19:27.517Z,6.16
2022-11-21T21:21:56.697Z,6.36
2022-11-21T21:24:26.003Z,6.40
2022-11-21T21:26:54.939Z,6.11
2022-11-21T21:29:23.806Z,5.43
2022-11-21T21:31:54.437Z,5.45
2022-11-21T21:34:24.396Z,5.70
2022-11-21T21:36:53.310Z,5.39
2022-11-21T21:39:22.162Z,5.55
2022-11-21T21:41:51.483Z,5.44
2022-11-21T21:44:20.460Z,5.73
2022-11-21T21:46:49.355Z,5.52
2022-11-21T21:49:19.601Z,5.34
2022-11-21T21:51:48.511Z,5.52
2022-11-21T21:54:19.709Z,6.07
2022-11-21T21:56:49.505Z,6.01
2022-11-21T21:59:19.895Z,5.86
2022-11-21T22:01:49.243Z,5.82
2022-11-21T22:04:19.768Z,6.07
2022-11-21T22:06:48.694Z,5.62
2022-11-21T22:09:17.588Z,5.70
2022-11-21T22:11:46.495Z,5.93
2022-11-21T22:14:17.679Z,5.53
2022-11-21T22:16:46.614Z,5.24
2022-11-21T22:19:15.690Z,5.48
2022-11-21T22:21:45.963Z,5.39
2022-11-21T22:24:25.436Z,5.24
2022-11-21T22:26:55.431Z,5.51
2022-11-21T22:29:24.385Z,5.47
2022-11-21T22:31:53.249Z,5.44
2022-11-21T22:34:22.635Z,5.87
2022-11-21T22:36:52.951Z,6.29
2022-11-21T22:39:21.917Z,5.94
2022-11-21T22:41:51.159Z,5.84
2022-11-21T22:44:22.896Z,5.95
2022-11-21T22:46:51.835Z,5.89
2022-11-21T22:49:20.880Z,5.51
2022-11-21T22:51:49.775Z,5.96
2022-11-21T22:54:20.065Z,5.95
2022-11-21T22:56:48.930Z,6.18
2022-11-21T22:59:17.891Z,6.23
2022-11-21T23:01:46.833Z,5.86
2022-11-21T23:04:17.889Z,5.91
2022-11-21T23:06:46.999Z,5.65
2022-11-21T23:09:15.884Z,5.52
2022-11-21T23:11:46.118Z,5.33
2022-11-21T23:14:14.950Z,5.24
2022-11-21T23:16:43.943Z,5.73
2022-11-21T23:19:13.067Z,5.95
2022-11-21T23:21:42.195Z,5.85
2022-11-21T23:24:11.227Z,5.70
2022-11-21T23:26:40.134Z,6.02
2022-11-21T23:29:10.435Z,6.16
2022-11-21T23:31:39.315Z,6.15
2022-11-21T23:34:11.151Z,5.23
2022-11-21T23:36:40.325Z,5.71
2022-11-21T23:39:09.294Z,6.09
2022-11-21T23:41:38.793Z,6.18
2022-11-21T23:44:07.687Z,6.36
2022-11-21T23:46:37.973Z,6.60
2022-11-21T23:49:06.858Z,6.65
2022-11-21T23:51:35.862Z,6.50
2022-11-21T23:54:04.816Z,6.50
2022-11-21T23:56:33.724Z,6.34
2022-11-21T23:59:03.174Z,6.24
